x

Ilm3 - 27 Miles Se Of Wrightsville Beach, Nc (41037) Weather Station

8:00pm - Fri 21st Nov 2014 All times are EST. -5 hours from GMT.

  • Wind
    16mph, 20mph gusts
  • Sea Temp 69°f
  • 空気 Temp 49°f
  • Sea Pressure 1032.5mb
  • Ilm3 - 27 Miles Se Of Wrightsville Beach, Nc
  • Ilm3 - 27 Miles Se Of Wrightsville Beach, Nc

More Historic Weather Station data

Upgrade to MSW Pro to gain access to the past 30 days of data for over 8000 Wavebouys and Weather Stations around the globe.

Join Pro

Comparision Forecast

View Surf forecast
   
Fri 11/21 8:00pm 16 20 mph 1032.5mb 69f 49f
7:00pm 13 16 mph 1032.3mb 69f 50f
6:00pm 16 18 mph 1031.6mb 69f 51f
5:00pm 16 20 mph 1030.7mb 69f 52f
4:00pm 16 20 mph 1030.5mb 69f 51f
3:00pm 13 16 mph 1029.9mb 69f 50f
2:00pm 16 18 mph 1029.3mb 69f 49f
1:00pm 13 18 mph 1029.1mb 69f 49f
12:00pm 18 20 mph 1030mb 68f 49f
11:00am 20 25 mph 1029.4mb 68f 49f
10:00am 22 29 mph 1028.6mb 69f 51f
9:00am 20 25 mph 1028mb 69f 51f
8:00am 18 25 mph 1026.9mb 69f 52f
7:00am 18 25 mph 1025.7mb 69f 53f
6:00am 20 25 mph 1024.8mb 69f 54f
5:00am 22 27 mph 1023.8mb 69f 55f
4:00am 25 27 mph 1023.2mb 69f 56f
3:00am 25 31 mph 1023.2mb 68f 57f
2:00am 27 31 mph 1022.3mb 68f 58f
1:00am 27 34 mph 1022.4mb 67f 58f
12:00am 27 31 mph 1021.9mb 67f 59f
Thu 11/20 11:00pm 27 31 mph 1022mb 67f 59f
10:00pm 27 34 mph 1022.4mb 67f 59f
9:00pm 25 34 mph 1021.1mb 67f 59f
8:00pm 20 27 mph 1021mb 67f 58f
7:00pm 27 34 mph 1020mb 67f 58f
6:00pm 27 34 mph 1019.6mb 67f 57f
5:00pm 25 29 mph 1019.1mb 67f 57f
4:00pm 22 29 mph 1019mb 67f 57f
3:00pm 22 25 mph 1019.3mb 67f 56f
2:00pm 25 31 mph 1019.3mb 67f 55f
1:00pm 20 27 mph 1020.2mb 67f 55f
12:00pm 20 25 mph 1021.9mb 67f 53f
11:00am 22 27 mph 1023.8mb 67f 52f
10:00am 20 25 mph 1024.7mb 67f 51f
9:00am 22 27 mph 1024.4mb 67f 50f
8:00am 20
mph
1023.9mb 67f 50f
7:00am 22 27 mph 1024mb 67f 49f
6:00am 20 25 mph 1023.7mb 67f 48f
5:00am 22 27 mph 1023.5mb 67f 49f
4:00am 22 25 mph 1023.6mb 67f 49f
3:00am 18 20 mph 1024.2mb 67f 48f
2:00am 20 25 mph 1024.1mb 67f 52f
1:00am 20 25 mph 1024.4mb 67f 51f
12:00am 18 25 mph 1025mb 67f 51f
Wed 11/19 11:00pm 13 16 mph 1025.3mb 67f 49f
10:00pm 7 9 mph 1026.1mb 67f 47f
9:00pm 9 13 mph 1026.1mb 67f 47f
8:00pm 4 7 mph 1026.6mb 67f 45f
7:00pm 7
mph
1027.3mb 67f 43f
6:00pm 7
mph
1027.3mb 67f 42f
5:00pm  -  2 mph 1027.4mb 67f 41f
4:00pm 2
mph
1027.8mb 67f 42f
3:00pm 2 4 mph 1028.1mb 67f 41f
2:00pm 2 4 mph 1028.5mb 67f 40f
1:00pm 7 11 mph 1029.4mb 67f 38f
12:00pm 4 7 mph 1030.2mb 67f 38f
11:00am 11 16 mph 1030.8mb 67f 38f
10:00am 11 16 mph 1030.7mb 67f 38f
9:00am 16 20 mph 1030.3mb 67f 38f
8:00am 16 22 mph 1029.8mb 67f 38f
7:00am 18 22 mph 1029.1mb 67f 38f
6:00am 16 20 mph 1028.2mb 67f 38f
5:00am 11 16 mph 1027.4mb 67f 38f
4:00am 13 16 mph 1027mb 68f 39f
3:00am 16 20 mph 1027.1mb 68f 38f
2:00am 16 20 mph 1027.5mb 67f 39f
1:00am 16 18 mph 1027.1mb 67f 39f
12:00am 16 18 mph 1026.7mb 68f 39f
Tue 11/18 11:00pm 16 18 mph 1026.7mb 68f 39f
10:00pm 18 22 mph 1026.4mb 68f 40f
9:00pm 20 25 mph 1025.9mb 68f 41f
8:00pm 22 25 mph 1025.3mb 68f 41f
7:00pm 20 34 mph 1024.2mb 68f 43f
6:00pm 20 25 mph 1022.7mb 68f 43f
5:00pm 16 18 mph 1021.8mb 68f 43f
4:00pm 20 27 mph 1020.2mb 68f 45f
3:00pm 16 18 mph 1019.5mb 68f 43f
2:00pm 18 22 mph 1019.6mb 68f 43f
1:00pm 16 18 mph 1019.3mb 68f 44f
12:00pm 18 22 mph 1019.9mb 68f 42f
11:00am 11 16 mph 1020.8mb 68f 42f
10:00am 18 22 mph 1020.1mb 68f 42f
9:00am 16 20 mph 1019mb 68f 43f
8:00am 22 29 mph 1018mb 68f 44f
7:00am 20 27 mph 1016.7mb 68f 46f
6:00am 25 29 mph 1015.1mb 68f 48f
5:00am 25 29 mph 1014mb 68f 52f
4:00am 25 29 mph 1012.1mb 68f 54f
3:00am 25 29 mph 1011.8mb 68f 56f